Time;durP1;ratioP1;P1;durP2;ratioP2;P2;SDS_P1;SDS_P2;PMS_P1;PMS_P2;Temp;Humidity;BMP_temperature;BMP_pressure;BME280_temperature;BME280_humidity;BME280_pressure;Samples;Min_cycle;Max_cycle;Signal;HPM_P1;HPM_P2
2023/12/15 05:23:03;;;;;;;;;23.50;20.75;;;;;;;;5386240;22;46749;-76
2023/12/15 05:25:29;;;;;;;;;21.50;19.75;;;;;;;;5057636;28;45349;-79
2023/12/15 05:27:54;;;;;;;;;23.75;21.00;;;;;;;;5059411;28;45430;-77
2023/12/15 05:30:19;;;;;;;;;20.75;18.00;;;;;;;;5062664;28;45519;-78
2023/12/15 05:32:44;;;;;;;;;23.00;20.50;;;;;;;;5059177;28;47077;-75
2023/12/15 05:35:09;;;;;;;;;18.50;15.00;;;;;;;;5061498;28;45547;-78
2023/12/15 05:37:35;;;;;;;;;19.75;17.25;;;;;;;;5059798;28;45124;-76
2023/12/15 05:40:00;;;;;;;;;19.25;14.00;;;;;;;;5058982;28;45401;-76
2023/12/15 05:42:25;;;;;;;;;21.75;17.00;;;;;;;;5058506;28;47262;-76
2023/12/15 05:44:51;;;;;;;;;22.75;16.25;;;;;;;;5060510;28;45227;-75
2023/12/15 05:47:16;;;;;;;;;19.75;16.25;;;;;;;;5056239;28;45295;-78
2023/12/15 05:49:41;;;;;;;;;20.75;15.75;;;;;;;;5058352;28;46797;-79
2023/12/15 05:52:10;;;;;;;;;19.50;18.00;;;;;;;;5053715;28;45345;-76
2023/12/15 05:54:39;;;;;;;;;20.00;19.75;;;;;;;;5053442;28;45343;-79
2023/12/15 05:57:04;;;;;;;;;13.75;13.00;;;;;;;;5057987;28;45527;-79
2023/12/15 05:59:30;;;;;;;;;26.50;19.75;;;;;;;;5059857;28;45421;-79
2023/12/15 06:01:55;;;;;;;;;20.25;18.50;;;;;;;;5055747;28;45341;-76
2023/12/15 06:04:20;;;;;;;;;19.00;18.00;;;;;;;;5060034;28;45477;-76
2023/12/15 06:06:45;;;;;;;;;22.25;22.00;;;;;;;;5059493;28;46042;-78
2023/12/15 06:09:10;;;;;;;;;21.00;17.75;;;;;;;;5059114;28;45758;-78
2023/12/15 06:11:42;;;;;;;;;16.50;10.75;;;;;;;;5058166;28;47267;-77
2023/12/15 06:14:10;;;;;;;;;20.00;16.50;;;;;;;;5059396;28;45303;-77
2023/12/15 06:16:35;;;;;;;;;16.75;14.00;;;;;;;;5058852;28;45665;-76
2023/12/15 06:19:01;;;;;;;;;18.00;15.00;;;;;;;;5060653;28;45219;-79
2023/12/15 06:21:26;;;;;;;;;15.75;13.00;;;;;;;;5059482;28;45225;-77
2023/12/15 06:23:52;;;;;;;;;19.50;17.75;;;;;;;;5059519;28;45389;-75
2023/12/15 06:26:18;;;;;;;;;20.25;18.50;;;;;;;;5059242;28;45267;-74
2023/12/15 06:28:43;;;;;;;;;22.50;19.00;;;;;;;;5059184;28;45311;-75
2023/12/15 06:31:08;;;;;;;;;26.50;19.00;;;;;;;;5059220;28;45353;-77
2023/12/15 06:33:34;;;;;;;;;26.25;22.75;;;;;;;;5059167;28;45202;-75
2023/12/15 06:35:59;;;;;;;;;26.50;19.00;;;;;;;;5060024;28;45364;-78
2023/12/15 06:38:24;;;;;;;;;22.75;19.00;;;;;;;;5058581;28;44867;-78
2023/12/15 06:40:49;;;;;;;;;23.25;21.25;;;;;;;;5060075;28;45199;-78
2023/12/15 06:43:14;;;;;;;;;19.00;14.00;;;;;;;;5053034;28;45283;-79
2023/12/15 06:45:40;;;;;;;;;20.75;18.25;;;;;;;;5058860;28;45499;-78
2023/12/15 06:48:05;;;;;;;;;19.25;18.25;;;;;;;;5058414;28;45419;-76
2023/12/15 06:50:30;;;;;;;;;22.25;18.75;;;;;;;;5057266;28;46640;-74
2023/12/15 06:52:55;;;;;;;;;24.75;20.00;;;;;;;;5058269;28;45449;-76
2023/12/15 06:55:20;;;;;;;;;21.50;19.75;;;;;;;;5058337;28;45362;-76
2023/12/15 06:57:45;;;;;;;;;25.25;18.00;;;;;;;;5058124;28;45449;-78
2023/12/15 07:00:11;;;;;;;;;19.50;19.00;;;;;;;;5059402;28;45322;-79
2023/12/15 07:02:36;;;;;;;;;22.25;21.00;;;;;;;;5058880;28;45251;-78
2023/12/15 07:05:01;;;;;;;;;22.00;18.00;;;;;;;;5059406;28;45387;-77
2023/12/15 07:07:26;;;;;;;;;23.50;22.00;;;;;;;;5057058;28;45566;-78
2023/12/15 07:09:52;;;;;;;;;24.50;18.75;;;;;;;;5057516;28;46850;-77
2023/12/15 07:12:17;;;;;;;;;27.50;22.50;;;;;;;;5058164;28;45421;-77
2023/12/15 07:14:42;;;;;;;;;28.00;21.50;;;;;;;;5060267;28;45358;-76
2023/12/15 07:17:07;;;;;;;;;24.00;21.50;;;;;;;;5060374;28;45263;-78
2023/12/15 07:19:33;;;;;;;;;23.00;21.50;;;;;;;;5061509;28;45285;-76
2023/12/15 07:21:58;;;;;;;;;30.75;23.75;;;;;;;;5060701;28;45264;-78
2023/12/15 07:24:23;;;;;;;;;24.75;19.75;;;;;;;;5058504;28;45298;-75
2023/12/15 07:26:48;;;;;;;;;24.25;21.25;;;;;;;;5059361;28;45601;-77
2023/12/15 07:29:14;;;;;;;;;22.75;19.50;;;;;;;;5056878;28;46034;-75
2023/12/15 07:31:40;;;;;;;;;26.50;24.50;;;;;;;;5057814;28;45297;-74
2023/12/15 07:34:05;;;;;;;;;26.25;22.25;;;;;;;;5060320;28;45058;-76
2023/12/15 07:36:31;;;;;;;;;31.00;25.75;;;;;;;;5060246;28;45552;-76
2023/12/15 07:38:57;;;;;;;;;29.75;24.00;;;;;;;;5058617;28;47148;-77
2023/12/15 07:41:22;;;;;;;;;29.25;24.25;;;;;;;;5046213;28;45410;-74
2023/12/15 07:43:47;;;;;;;;;33.00;28.75;;;;;;;;5056993;28;45624;-76
2023/12/15 07:46:19;;;;;;;;;28.00;24.50;;;;;;;;5047827;28;45236;-75
2023/12/15 07:48:44;;;;;;;;;30.00;26.75;;;;;;;;5058261;28;46648;-75
2023/12/15 07:51:27;;;;;;;;;26.50;24.50;;;;;;;;5057107;28;45464;-81
2023/12/15 07:53:53;;;;;;;;;26.75;21.50;;;;;;;;5053249;28;45577;-77
2023/12/15 07:56:19;;;;;;;;;30.75;30.75;;;;;;;;5055401;28;45283;-75
2023/12/15 07:58:44;;;;;;;;;32.75;26.75;;;;;;;;5056888;28;47181;-74
2023/12/15 08:01:10;;;;;;;;;28.25;22.75;;;;;;;;5057876;28;45255;-74
2023/12/15 08:03:35;;;;;;;;;30.50;24.25;;;;;;;;5058119;28;45371;-77
2023/12/15 08:06:00;;;;;;;;;28.75;27.75;;;;;;;;5057858;28;45337;-76
2023/12/15 08:08:25;;;;;;;;;33.75;28.50;;;;;;;;5055577;28;47965;-77
2023/12/15 08:10:51;;;;;;;;;36.25;32.00;;;;;;;;5057549;28;45326;-75
2023/12/15 08:13:16;;;;;;;;;29.25;28.25;;;;;;;;5056156;28;45406;-74
2023/12/15 08:15:41;;;;;;;;;32.00;26.25;;;;;;;;5050168;28;45496;-76
2023/12/15 08:18:06;;;;;;;;;29.50;23.75;;;;;;;;5058662;28;45495;-76
2023/12/15 08:20:32;;;;;;;;;29.50;26.25;;;;;;;;5058164;28;45305;-76
2023/12/15 08:22:57;;;;;;;;;29.75;28.25;;;;;;;;5059949;28;45243;-75
2023/12/15 08:25:22;;;;;;;;;32.50;31.25;;;;;;;;5060611;28;45714;-75
2023/12/15 08:27:47;;;;;;;;;45.25;36.75;;;;;;;;5060686;28;45459;-76
2023/12/15 08:30:12;;;;;;;;;43.25;36.00;;;;;;;;5059772;28;45406;-76
2023/12/15 08:32:38;;;;;;;;;51.50;39.00;;;;;;;;5057817;28;45411;-75
2023/12/15 08:35:03;;;;;;;;;45.00;32.75;;;;;;;;5047628;28;46236;-75
2023/12/15 08:37:29;;;;;;;;;35.25;33.25;;;;;;;;5059972;28;45451;-77
2023/12/15 08:39:54;;;;;;;;;41.00;34.25;;;;;;;;5060913;28;45228;-76
2023/12/15 08:42:19;;;;;;;;;53.50;43.00;;;;;;;;5051163;28;45398;-75
2023/12/15 08:44:44;;;;;;;;;45.25;38.25;;;;;;;;5059210;28;45194;-78
2023/12/15 08:47:09;;;;;;;;;38.25;33.00;;;;;;;;5060526;28;45244;-76
2023/12/15 08:49:34;;;;;;;;;42.25;36.00;;;;;;;;5061512;28;45230;-75
2023/12/15 08:52:00;;;;;;;;;57.00;44.25;;;;;;;;5060931;28;45715;-77
2023/12/15 08:54:25;;;;;;;;;53.00;43.25;;;;;;;;5055844;28;45499;-75
2023/12/15 08:56:50;;;;;;;;;51.25;42.00;;;;;;;;5057167;28;48059;-75
2023/12/15 08:59:16;;;;;;;;;49.75;37.50;;;;;;;;5060517;28;45654;-76
2023/12/15 09:01:41;;;;;;;;;51.75;41.25;;;;;;;;5053308;28;45535;-76
2023/12/15 09:04:06;;;;;;;;;54.25;42.00;;;;;;;;5060530;28;45320;-77
2023/12/15 09:06:31;;;;;;;;;49.25;42.00;;;;;;;;5051046;28;45424;-76
2023/12/15 09:08:56;;;;;;;;;68.00;51.50;;;;;;;;5058682;28;45350;-79
2023/12/15 09:11:22;;;;;;;;;50.00;39.25;;;;;;;;5051624;28;45536;-76
2023/12/15 09:13:47;;;;;;;;;33.25;29.00;;;;;;;;5059020;28;46114;-79
2023/12/15 09:16:12;;;;;;;;;40.25;33.75;;;;;;;;5055366;28;45404;-77
2023/12/15 09:18:37;;;;;;;;;40.00;33.00;;;;;;;;5060281;28;45398;-77
2023/12/15 09:21:03;;;;;;;;;47.00;37.25;;;;;;;;5063305;28;45530;-79
2023/12/15 09:23:28;;;;;;;;;32.75;31.50;;;;;;;;5062526;28;45605;-77
2023/12/15 09:25:53;;;;;;;;;36.75;33.75;;;;;;;;5062491;28;45514;-78
2023/12/15 09:28:18;;;;;;;;;39.25;31.25;;;;;;;;5061388;28;45431;-78
2023/12/15 09:30:43;;;;;;;;;35.00;27.50;;;;;;;;5058834;28;45339;-78
2023/12/15 09:33:09;;;;;;;;;34.00;31.00;;;;;;;;5060180;28;45309;-79
2023/12/15 09:35:34;;;;;;;;;30.75;26.25;;;;;;;;5059058;28;45380;-77
2023/12/15 09:37:59;;;;;;;;;28.00;26.25;;;;;;;;5058084;28;45476;-78
2023/12/15 09:40:27;;;;;;;;;35.25;27.50;;;;;;;;5043772;28;45231;-77
2023/12/15 09:42:52;;;;;;;;;33.25;27.00;;;;;;;;5054136;28;45307;-78
2023/12/15 09:45:19;;;;;;;;;30.00;23.00;;;;;;;;5056002;28;46779;-77
2023/12/15 09:47:47;;;;;;;;;29.50;25.75;;;;;;;;5048355;28;45417;-77
2023/12/15 09:50:14;;;;;;;;;33.00;30.50;;;;;;;;5057271;28;45285;-77
2023/12/15 09:52:40;;;;;;;;;27.00;25.25;;;;;;;;5059329;28;45480;-77
2023/12/15 09:55:06;;;;;;;;;25.75;22.75;;;;;;;;5043330;28;46138;-79
2023/12/15 09:57:32;;;;;;;;;31.00;28.25;;;;;;;;5052997;28;45326;-76
2023/12/15 09:59:58;;;;;;;;;41.25;31.75;;;;;;;;5060350;28;45426;-78
2023/12/15 10:02:23;;;;;;;;;39.25;33.75;;;;;;;;5059423;28;45217;-77
2023/12/15 10:04:48;;;;;;;;;35.50;29.25;;;;;;;;5057065;28;45575;-77
2023/12/15 10:07:13;;;;;;;;;25.75;25.25;;;;;;;;5054666;28;45448;-78
2023/12/15 10:09:39;;;;;;;;;27.00;26.00;;;;;;;;5058658;28;45370;-77
2023/12/15 10:12:07;;;;;;;;;25.75;25.75;;;;;;;;5057936;28;45269;-77
2023/12/15 10:14:35;;;;;;;;;28.50;26.00;;;;;;;;5058323;28;45677;-77
2023/12/15 10:17:00;;;;;;;;;23.00;17.50;;;;;;;;5056408;28;45592;-77
2023/12/15 10:19:25;;;;;;;;;19.00;18.00;;;;;;;;5056736;28;45326;-78
2023/12/15 10:21:50;;;;;;;;;25.25;22.50;;;;;;;;5055531;28;45871;-77
2023/12/15 10:24:19;;;;;;;;;27.50;20.75;;;;;;;;5057713;28;46366;-77
2023/12/15 10:26:44;;;;;;;;;21.50;21.00;;;;;;;;5051086;28;45454;-77
2023/12/15 10:29:09;;;;;;;;;25.00;18.25;;;;;;;;5058292;28;45564;-78
2023/12/15 10:31:37;;;;;;;;;26.75;25.50;;;;;;;;5057531;28;45428;-77
2023/12/15 10:34:03;;;;;;;;;29.50;22.00;;;;;;;;5057811;28;45551;-77
2023/12/15 10:36:29;;;;;;;;;28.25;22.75;;;;;;;;5055283;28;45393;-77
2023/12/15 10:38:54;;;;;;;;;27.25;24.00;;;;;;;;5057579;28;45319;-78
2023/12/15 10:41:20;;;;;;;;;18.75;18.75;;;;;;;;5048611;28;45517;-77
2023/12/15 10:43:45;;;;;;;;;22.25;22.25;;;;;;;;5056496;28;45450;-76
2023/12/15 10:46:11;;;;;;;;;24.25;23.25;;;;;;;;5055993;28;46226;-76
2023/12/15 10:48:38;;;;;;;;;30.50;23.00;;;;;;;;5057656;28;45406;-76
2023/12/15 10:51:04;;;;;;;;;25.75;23.25;;;;;;;;5057886;28;45489;-76
2023/12/15 10:53:31;;;;;;;;;26.75;23.00;;;;;;;;5056898;28;46599;-78
2023/12/15 10:55:57;;;;;;;;;30.00;24.00;;;;;;;;5049129;28;45444;-76
2023/12/15 10:58:22;;;;;;;;;27.75;22.25;;;;;;;;5057293;28;44871;-76
2023/12/15 11:00:47;;;;;;;;;31.75;28.25;;;;;;;;5049568;28;45559;-77
2023/12/15 11:03:13;;;;;;;;;35.75;26.50;;;;;;;;5056455;28;45578;-78
2023/12/15 11:05:41;;;;;;;;;32.75;26.50;;;;;;;;5056913;28;45385;-76
2023/12/15 11:08:07;;;;;;;;;30.50;28.00;;;;;;;;5057269;28;45287;-77
2023/12/15 11:10:32;;;;;;;;;32.25;26.00;;;;;;;;5052594;28;45558;-77
2023/12/15 11:12:58;;;;;;;;;42.75;35.75;;;;;;;;5055652;28;45500;-76
2023/12/15 11:15:23;;;;;;;;;29.00;27.75;;;;;;;;5052768;28;45204;-79
2023/12/15 11:17:52;;;;;;;;;30.25;27.50;;;;;;;;5055775;28;45470;-78
2023/12/15 11:20:21;;;;;;;;;34.00;29.75;;;;;;;;5058177;28;45284;-77
2023/12/15 11:22:58;;;;;;;;;27.00;25.50;;;;;;;;5058794;28;46336;-76
2023/12/15 11:25:27;;;;;;;;;35.00;28.75;;;;;;;;5060999;28;45312;-77
2023/12/15 11:28:08;;;;;;;;;39.25;31.25;;;;;;;;5057130;28;44851;-77
2023/12/15 11:30:36;;;;;;;;;36.75;30.25;;;;;;;;5061215;28;45426;-77
2023/12/15 11:33:24;;;;;;;;;34.00;27.25;;;;;;;;5058592;28;47158;-75
2023/12/15 11:35:53;;;;;;;;;31.00;28.25;;;;;;;;5054040;28;45493;-75
2023/12/15 11:38:19;;;;;;;;;33.75;28.50;;;;;;;;5053200;28;45316;-75
2023/12/15 11:40:45;;;;;;;;;32.25;29.75;;;;;;;;5050749;28;46663;-74
2023/12/15 11:43:10;;;;;;;;;39.75;34.25;;;;;;;;5055257;28;45479;-75
2023/12/15 11:45:35;;;;;;;;;37.00;29.75;;;;;;;;5055843;28;45358;-75
2023/12/15 11:48:00;;;;;;;;;40.50;33.50;;;;;;;;5055141;28;45740;-75
2023/12/15 11:50:26;;;;;;;;;44.75;34.75;;;;;;;;5056432;28;45334;-75
2023/12/15 11:52:51;;;;;;;;;41.50;30.00;;;;;;;;5058913;28;46714;-76
2023/12/15 11:55:17;;;;;;;;;42.00;33.00;;;;;;;;5060673;28;45426;-76
2023/12/15 11:57:42;;;;;;;;;30.75;30.00;;;;;;;;5061566;28;45531;-76
2023/12/15 12:00:09;;;;;;;;;30.00;28.25;;;;;;;;5061477;28;45290;-75
2023/12/15 12:02:36;;;;;;;;;37.75;31.75;;;;;;;;5061175;28;45562;-77
2023/12/15 12:05:01;;;;;;;;;36.25;31.75;;;;;;;;5061667;28;45231;-78
2023/12/15 12:07:27;;;;;;;;;27.50;23.50;;;;;;;;5059523;28;45234;-77
2023/12/15 12:09:53;;;;;;;;;31.00;27.75;;;;;;;;5061068;28;45165;-78
2023/12/15 12:12:18;;;;;;;;;30.50;25.00;;;;;;;;5051943;28;45304;-77
2023/12/15 12:14:43;;;;;;;;;30.75;27.00;;;;;;;;5059440;28;45191;-77
2023/12/15 12:17:10;;;;;;;;;37.50;31.00;;;;;;;;5058836;28;46546;-78
2023/12/15 12:19:39;;;;;;;;;32.75;29.00;;;;;;;;5058993;28;45492;-76
2023/12/15 12:22:08;;;;;;;;;32.25;28.25;;;;;;;;5057534;28;46442;-77
2023/12/15 12:24:33;;;;;;;;;33.50;27.00;;;;;;;;5060222;28;45255;-78
2023/12/15 12:26:58;;;;;;;;;33.50;31.25;;;;;;;;5059124;28;45217;-77
2023/12/15 12:29:24;;;;;;;;;29.75;22.00;;;;;;;;5058443;28;45782;-75
2023/12/15 12:31:50;;;;;;;;;23.50;20.00;;;;;;;;5056348;28;46579;-76
2023/12/15 12:34:15;;;;;;;;;19.75;17.50;;;;;;;;5060134;28;45361;-74
2023/12/15 12:36:40;;;;;;;;;23.75;21.25;;;;;;;;5058051;28;45676;-77
2023/12/15 12:39:06;;;;;;;;;23.25;15.00;;;;;;;;5059087;28;45441;-76
2023/12/15 12:41:31;;;;;;;;;19.50;19.50;;;;;;;;5060509;28;46089;-76
2023/12/15 12:43:56;;;;;;;;;25.25;20.50;;;;;;;;5061250;28;45331;-76
2023/12/15 12:46:22;;;;;;;;;22.50;19.50;;;;;;;;5059999;28;45256;-76
2023/12/15 12:48:47;;;;;;;;;30.50;23.00;;;;;;;;5061758;28;45336;-76
2023/12/15 12:51:12;;;;;;;;;20.75;18.50;;;;;;;;5059885;28;47123;-77
2023/12/15 12:53:37;;;;;;;;;20.25;19.50;;;;;;;;5060823;28;45445;-76
2023/12/15 12:56:03;;;;;;;;;26.75;20.50;;;;;;;;5061044;28;45394;-76
2023/12/15 12:58:28;;;;;;;;;28.00;21.25;;;;;;;;5059999;28;45386;-76
2023/12/15 13:00:53;;;;;;;;;31.00;24.75;;;;;;;;5061207;28;45390;-76
2023/12/15 13:03:19;;;;;;;;;25.00;23.25;;;;;;;;5059667;28;45306;-77
2023/12/15 13:05:44;;;;;;;;;23.50;20.25;;;;;;;;5052516;28;45294;-76
2023/12/15 13:08:09;;;;;;;;;20.00;16.00;;;;;;;;5059591;28;45523;-76
2023/12/15 13:10:35;;;;;;;;;20.75;18.75;;;;;;;;5060637;28;45435;-77
2023/12/15 13:13:00;;;;;;;;;20.75;17.00;;;;;;;;5059753;28;45248;-77
2023/12/15 13:15:27;;;;;;;;;20.75;17.75;;;;;;;;5060822;28;45158;-76
2023/12/15 13:17:59;;;;;;;;;29.25;20.00;;;;;;;;5059585;28;45161;-76
2023/12/15 13:20:25;;;;;;;;;14.67;14.00;;;;;;;;5060448;27;46245;-76
2023/12/15 13:22:50;;;;;;;;;17.75;12.75;;;;;;;;5060410;28;45395;-75
2023/12/15 13:25:15;;;;;;;;;15.50;11.75;;;;;;;;5063309;28;45296;-76
2023/12/15 13:27:40;;;;;;;;;17.50;13.75;;;;;;;;5062534;28;45415;-75
2023/12/15 13:30:09;;;;;;;;;14.33;13.00;;;;;;;;5061990;28;45415;-75
2023/12/15 13:32:34;;;;;;;;;13.67;13.33;;;;;;;;5062159;28;45375;-76
2023/12/15 13:34:59;;;;;;;;;14.50;10.75;;;;;;;;5061406;28;45263;-75
2023/12/15 13:37:24;;;;;;;;;16.67;10.00;;;;;;;;5058916;28;45199;-76
2023/12/15 13:39:50;;;;;;;;;17.75;11.50;;;;;;;;5059846;28;46394;-76
2023/12/15 13:42:15;;;;;;;;;15.00;12.50;;;;;;;;5055056;28;45334;-75
2023/12/15 13:44:40;;;;;;;;;14.00;12.00;;;;;;;;5059830;28;45275;-75
2023/12/15 13:47:05;;;;;;;;;14.50;11.25;;;;;;;;5058383;28;45394;-75
2023/12/15 13:49:32;;;;;;;;;15.00;13.67;;;;;;;;5059881;28;45561;-74
2023/12/15 13:51:57;;;;;;;;;14.50;13.25;;;;;;;;5059021;28;45489;-74
2023/12/15 13:54:22;;;;;;;;;21.25;17.75;;;;;;;;5052519;28;45584;-74
2023/12/15 13:56:48;;;;;;;;;18.00;11.00;;;;;;;;5058971;28;45329;-74
2023/12/15 13:59:13;;;;;;;;;17.33;11.33;;;;;;;;5053998;28;46991;-75
2023/12/15 14:01:39;;;;;;;;;14.67;10.33;;;;;;;;5059341;28;45426;-75
2023/12/15 14:04:06;;;;;;;;;18.00;12.50;;;;;;;;5054155;28;45284;-74
2023/12/15 14:06:32;;;;;;;;;16.50;11.00;;;;;;;;5058466;28;46114;-75
2023/12/15 14:08:58;;;;;;;;;15.00;10.33;;;;;;;;5059680;28;44926;-75
2023/12/15 14:11:23;;;;;;;;;11.33;9.33;;;;;;;;5056812;28;45616;-76
2023/12/15 14:13:48;;;;;;;;;17.25;13.25;;;;;;;;5060173;28;45251;-76
2023/12/15 14:16:14;;;;;;;;;17.33;13.33;;;;;;;;5059513;28;45504;-77
2023/12/15 14:18:40;;;;;;;;;15.25;11.50;;;;;;;;5058989;28;46151;-76
2023/12/15 14:21:06;;;;;;;;;15.25;12.75;;;;;;;;5057672;28;45701;-76
2023/12/15 14:23:31;;;;;;;;;13.75;12.75;;;;;;;;5058773;28;45801;-76
2023/12/15 14:25:56;;;;;;;;;15.33;10.67;;;;;;;;5059140;28;45532;-76
2023/12/15 14:28:21;;;;;;;;;18.75;13.25;;;;;;;;5058523;28;45382;-76
2023/12/15 14:30:46;;;;;;;;;16.33;9.67;;;;;;;;5057913;28;45362;-76
2023/12/15 14:33:12;;;;;;;;;10.50;10.50;;;;;;;;5057033;28;45563;-77
2023/12/15 14:35:37;;;;;;;;;16.75;13.00;;;;;;;;5058763;28;45664;-78
2023/12/15 14:38:03;;;;;;;;;18.75;12.25;;;;;;;;5057033;28;47228;-77
2023/12/15 14:40:28;;;;;;;;;16.00;11.00;;;;;;;;5058940;28;45425;-77
2023/12/15 14:42:53;;;;;;;;;17.00;14.50;;;;;;;;5049638;28;45545;-76
2023/12/15 14:45:18;;;;;;;;;13.75;12.25;;;;;;;;5058018;28;45512;-76
2023/12/15 14:47:44;;;;;;;;;20.50;15.50;;;;;;;;5055870;28;47330;-76
2023/12/15 14:50:09;;;;;;;;;16.75;13.50;;;;;;;;5058399;28;45330;-76
2023/12/15 14:52:34;;;;;;;;;14.50;9.50;;;;;;;;5056913;28;45638;-76
2023/12/15 14:54:59;;;;;;;;;13.25;11.25;;;;;;;;5054765;28;45572;-75
2023/12/15 14:57:25;;;;;;;;;10.00;9.75;;;;;;;;5048375;28;45575;-78
2023/12/15 14:59:50;;;;;;;;;14.00;9.25;;;;;;;;5057806;28;45463;-78
2023/12/15 15:02:15;;;;;;;;;10.25;7.75;;;;;;;;5058986;28;44730;-78
2023/12/15 15:04:40;;;;;;;;;15.75;9.75;;;;;;;;5057286;28;45618;-78
2023/12/15 15:07:05;;;;;;;;;16.75;13.50;;;;;;;;5059362;28;46371;-78
2023/12/15 15:09:31;;;;;;;;;17.50;14.25;;;;;;;;5054911;28;45442;-76
2023/12/15 15:11:56;;;;;;;;;15.00;13.75;;;;;;;;5058454;28;45224;-78
2023/12/15 15:14:21;;;;;;;;;15.75;11.50;;;;;;;;5059207;28;45263;-78
2023/12/15 15:16:46;;;;;;;;;13.25;9.75;;;;;;;;5056686;28;45704;-78
2023/12/15 15:19:12;;;;;;;;;13.00;11.50;;;;;;;;5059067;28;45339;-75
2023/12/15 15:21:37;;;;;;;;;14.25;11.75;;;;;;;;5059642;28;45546;-78
2023/12/15 15:24:02;;;;;;;;;11.25;8.50;;;;;;;;5061262;28;45174;-78
2023/12/15 15:26:27;;;;;;;;;11.75;8.75;;;;;;;;5060400;28;46363;-75
2023/12/15 15:28:53;;;;;;;;;9.00;8.50;;;;;;;;5064250;28;45250;-76
2023/12/15 15:31:18;;;;;;;;;17.50;12.75;;;;;;;;5064039;28;45244;-76
2023/12/15 15:33:43;;;;;;;;;14.75;14.00;;;;;;;;5063874;28;45340;-76
2023/12/15 15:36:09;;;;;;;;;20.50;15.50;;;;;;;;5060445;28;46846;-76
2023/12/15 15:38:34;;;;;;;;;15.50;11.75;;;;;;;;5061669;28;45246;-76
2023/12/15 15:41:01;;;;;;;;;21.00;16.25;;;;;;;;5062667;28;44724;-76
2023/12/15 15:43:26;;;;;;;;;17.25;16.25;;;;;;;;5059787;28;46009;-76
2023/12/15 15:45:51;;;;;;;;;19.75;16.50;;;;;;;;5061827;28;45629;-76
2023/12/15 15:48:17;;;;;;;;;15.50;12.75;;;;;;;;5058263;28;45410;-76
2023/12/15 15:50:43;;;;;;;;;17.50;14.50;;;;;;;;5062310;28;45229;-76
2023/12/15 15:53:08;;;;;;;;;25.25;21.25;;;;;;;;5060737;28;45507;-76
2023/12/15 15:55:33;;;;;;;;;22.25;19.25;;;;;;;;5061572;28;45327;-76
2023/12/15 15:57:59;;;;;;;;;16.00;12.75;;;;;;;;5061026;28;45497;-76
2023/12/15 16:00:24;;;;;;;;;30.50;24.00;;;;;;;;5060653;28;45342;-76
2023/12/15 16:02:50;;;;;;;;;24.25;20.75;;;;;;;;5060968;28;45364;-76
2023/12/15 16:05:16;;;;;;;;;19.75;19.25;;;;;;;;5060225;28;47132;-76
2023/12/15 16:07:41;;;;;;;;;25.50;19.75;;;;;;;;5060843;28;45302;-76
2023/12/15 16:10:06;;;;;;;;;25.00;19.50;;;;;;;;5060379;28;45651;-77
2023/12/15 16:12:32;;;;;;;;;16.00;12.00;;;;;;;;5058154;28;45965;-77
2023/12/15 16:14:57;;;;;;;;;17.50;15.75;;;;;;;;5061300;28;45452;-76
2023/12/15 16:17:22;;;;;;;;;14.50;11.75;;;;;;;;5057570;28;45312;-77
2023/12/15 16:19:48;;;;;;;;;16.75;14.75;;;;;;;;5061627;28;45157;-77
2023/12/15 16:22:13;;;;;;;;;17.50;14.50;;;;;;;;5060556;28;45371;-77
2023/12/15 16:24:38;;;;;;;;;20.25;14.50;;;;;;;;5061210;28;45302;-77
2023/12/15 16:27:03;;;;;;;;;19.75;12.25;;;;;;;;5059649;28;45374;-76
2023/12/15 16:29:29;;;;;;;;;17.50;14.50;;;;;;;;5061149;28;45234;-78
2023/12/15 16:31:54;;;;;;;;;21.00;18.50;;;;;;;;5057630;28;45672;-78
2023/12/15 16:34:20;;;;;;;;;22.00;17.25;;;;;;;;5059965;28;45572;-77
2023/12/15 16:36:45;;;;;;;;;18.75;15.00;;;;;;;;5059649;28;45585;-77
2023/12/15 16:39:13;;;;;;;;;23.00;19.00;;;;;;;;5060844;28;45262;-77
2023/12/15 16:41:39;;;;;;;;;17.75;15.50;;;;;;;;5058756;28;46022;-75
2023/12/15 16:44:05;;;;;;;;;18.75;13.25;;;;;;;;5052671;28;45488;-76
2023/12/15 16:46:30;;;;;;;;;17.25;15.25;;;;;;;;5060795;28;45584;-76
2023/12/15 16:48:56;;;;;;;;;25.75;19.75;;;;;;;;5059831;28;45433;-76
2023/12/15 16:51:22;;;;;;;;;20.25;18.50;;;;;;;;5061529;28;46169;-77
2023/12/15 16:53:48;;;;;;;;;21.25;16.00;;;;;;;;5061408;28;45319;-76
2023/12/15 16:56:13;;;;;;;;;20.25;19.00;;;;;;;;5048003;28;45276;-77
2023/12/15 16:58:39;;;;;;;;;21.25;19.00;;;;;;;;5062512;28;44713;-77
2023/12/15 17:01:04;;;;;;;;;26.75;25.75;;;;;;;;5061467;28;45245;-76
2023/12/15 17:03:30;;;;;;;;;25.75;21.50;;;;;;;;5061951;28;45347;-76
2023/12/15 17:05:55;;;;;;;;;23.25;22.75;;;;;;;;5060650;28;45320;-76
2023/12/15 17:08:20;;;;;;;;;18.50;15.75;;;;;;;;5054820;28;45591;-76
2023/12/15 17:10:45;;;;;;;;;21.00;17.50;;;;;;;;5059177;28;45630;-76
2023/12/15 17:13:11;;;;;;;;;20.25;17.75;;;;;;;;5059846;28;46540;-76
2023/12/15 17:15:36;;;;;;;;;10.00;7.25;;;;;;;;5061039;28;45354;-76
2023/12/15 17:18:01;;;;;;;;;23.50;20.00;;;;;;;;5060921;28;45388;-76
2023/12/15 17:20:27;;;;;;;;;19.00;15.25;;;;;;;;5062548;28;45359;-76
2023/12/15 17:22:52;;;;;;;;;19.50;17.00;;;;;;;;5061698;28;45684;-76
2023/12/15 17:25:17;;;;;;;;;23.50;20.00;;;;;;;;5061718;28;45394;-76
2023/12/15 17:27:42;;;;;;;;;27.50;19.75;;;;;;;;5062111;28;45544;-76
2023/12/15 17:30:07;;;;;;;;;23.50;20.25;;;;;;;;5062248;28;45338;-76
2023/12/15 17:32:33;;;;;;;;;30.25;27.00;;;;;;;;5058749;28;47100;-76
2023/12/15 17:34:58;;;;;;;;;26.50;20.00;;;;;;;;5058907;28;45337;-75
2023/12/15 17:37:24;;;;;;;;;24.25;18.00;;;;;;;;5058195;28;45334;-75
2023/12/15 17:39:49;;;;;;;;;21.00;20.50;;;;;;;;5066874;28;45331;-77
2023/12/15 17:42:14;;;;;;;;;20.50;18.00;;;;;;;;5059484;28;45479;-74
2023/12/15 17:44:40;;;;;;;;;19.25;19.00;;;;;;;;5060380;28;44768;-74
2023/12/15 17:47:05;;;;;;;;;22.00;20.00;;;;;;;;5059365;28;45338;-75
2023/12/15 17:49:30;;;;;;;;;29.25;22.75;;;;;;;;5059834;28;45529;-73
2023/12/15 17:51:55;;;;;;;;;23.00;23.00;;;;;;;;5058755;28;45750;-75
2023/12/15 17:54:20;;;;;;;;;29.00;24.50;;;;;;;;5060027;28;45247;-74
2023/12/15 17:56:47;;;;;;;;;26.75;24.50;;;;;;;;5059748;28;45548;-74
2023/12/15 17:59:12;;;;;;;;;43.75;35.50;;;;;;;;5058432;28;46312;-73
2023/12/15 18:01:37;;;;;;;;;25.75;18.75;;;;;;;;5059592;28;46383;-73
2023/12/15 18:04:02;;;;;;;;;29.00;27.50;;;;;;;;5058658;28;45261;-74
2023/12/15 18:06:28;;;;;;;;;55.25;42.75;;;;;;;;5056387;28;45266;-75
2023/12/15 18:08:53;;;;;;;;;27.00;24.50;;;;;;;;5059720;28;46156;-75
2023/12/15 18:11:19;;;;;;;;;41.75;35.75;;;;;;;;5061873;28;45656;-75
2023/12/15 18:13:44;;;;;;;;;30.00;27.75;;;;;;;;5063064;28;45318;-75
2023/12/15 18:16:09;;;;;;;;;35.00;27.50;;;;;;;;5063362;28;45315;-75
2023/12/15 18:18:37;;;;;;;;;37.25;32.25;;;;;;;;5060761;28;45215;-74
2023/12/15 18:21:02;;;;;;;;;30.25;25.00;;;;;;;;5058302;28;47733;-74
2023/12/15 18:23:27;;;;;;;;;28.00;23.50;;;;;;;;5059125;28;45362;-75
2023/12/15 18:25:52;;;;;;;;;35.00;29.75;;;;;;;;5059991;28;45411;-75
2023/12/15 18:28:18;;;;;;;;;33.50;29.75;;;;;;;;5054921;28;45516;-75
2023/12/15 18:30:43;;;;;;;;;36.00;29.75;;;;;;;;5059767;28;45504;-73
2023/12/15 18:33:08;;;;;;;;;34.75;29.00;;;;;;;;5059493;28;45306;-75
2023/12/15 18:35:34;;;;;;;;;39.50;30.75;;;;;;;;5054313;28;45543;-75
2023/12/15 18:37:59;;;;;;;;;40.50;35.25;;;;;;;;5053229;28;45296;-74
2023/12/15 18:40:25;;;;;;;;;39.00;36.50;;;;;;;;5059433;28;45567;-74
2023/12/15 18:42:51;;;;;;;;;44.50;39.25;;;;;;;;5059315;28;45478;-73
2023/12/15 18:45:17;;;;;;;;;47.50;36.25;;;;;;;;5059077;28;45211;-74
2023/12/15 18:47:43;;;;;;;;;44.00;36.50;;;;;;;;5058920;28;45295;-73
2023/12/15 18:50:08;;;;;;;;;36.25;34.00;;;;;;;;5058633;28;46178;-74
2023/12/15 18:52:34;;;;;;;;;37.00;34.25;;;;;;;;5058509;28;45239;-74
2023/12/15 18:55:00;;;;;;;;;43.25;36.00;;;;;;;;5059702;28;45219;-74
2023/12/15 18:57:26;;;;;;;;;34.75;28.75;;;;;;;;5059079;28;45311;-74
2023/12/15 18:59:51;;;;;;;;;32.50;31.25;;;;;;;;5057806;28;45582;-73
2023/12/15 19:02:16;;;;;;;;;31.75;26.50;;;;;;;;5057982;28;45330;-74
2023/12/15 19:04:41;;;;;;;;;35.75;30.00;;;;;;;;5059301;28;45090;-73
2023/12/15 19:07:06;;;;;;;;;28.25;22.00;;;;;;;;5058663;28;45365;-74
2023/12/15 19:09:32;;;;;;;;;30.00;27.25;;;;;;;;5058944;28;46467;-74
2023/12/15 19:11:57;;;;;;;;;26.00;23.25;;;;;;;;5059227;28;45431;-74
2023/12/15 19:14:22;;;;;;;;;26.00;21.00;;;;;;;;5059788;28;45556;-74
2023/12/15 19:16:48;;;;;;;;;21.75;19.75;;;;;;;;5058172;28;45299;-74
2023/12/15 19:19:13;;;;;;;;;23.75;23.75;;;;;;;;5059365;28;46548;-74
2023/12/15 19:21:38;;;;;;;;;24.00;21.50;;;;;;;;5059383;28;45260;-75
2023/12/15 19:24:05;;;;;;;;;27.50;22.25;;;;;;;;5059592;28;45446;-74
2023/12/15 19:26:30;;;;;;;;;22.25;18.50;;;;;;;;5058310;28;45319;-75
2023/12/15 19:28:57;;;;;;;;;24.75;22.00;;;;;;;;5058138;28;45530;-75
2023/12/15 19:31:22;;;;;;;;;28.75;25.75;;;;;;;;5059103;28;44765;-75